Terminal Aerodrome Forecast
Issued by NWS Northern Indiana

Home | Current Version | Previous Version | Text Only | Print | Product List | Glossary On
Versions: 1 2 3 4 5 6 7 8 9 10 11 12 13 14 15 16 17
037
FTUS43 KIWX 060820 AAA
TAFFWA
TAF AMD
KFWA 060820Z 0608/0706 24006KT 6SM BR SCT013 SCT250
      TEMPO 0608/0611 4SM BR SCT009
     FM061200 24012KT P6SM SCT050=

USA.gov is the U.S. government's official web portal to all federal, state and local government web resources and services.